Time;durP1;ratioP1;P1;durP2;ratioP2;P2;SDS_P1;SDS_P2;PMS_P1;PMS_P2;Temp;Humidity;BMP_temperature;BMP_pressure;BME280_temperature;BME280_humidity;BME280_pressure;Samples;Min_cycle;Max_cycle;Signal;HPM_P1;HPM_P2
2022/11/12 00:02:17;;;;;;;0.60;0.60;;;6.70;99.90;;;;;;4965588;28;20044;-85
2022/11/12 00:04:42;;;;;;;0.60;0.60;;;6.60;99.90;;;;;;4983977;28;20851;-85
2022/11/12 00:07:08;;;;;;;0.60;0.60;;;6.60;99.90;;;;;;4963890;28;20052;-85
2022/11/12 00:09:34;;;;;;;0.60;0.60;;;6.80;99.90;;;;;;4939983;28;20228;-85
2022/11/12 00:12:00;;;;;;;0.60;0.60;;;6.70;99.90;;;;;;4970351;28;20048;-86
2022/11/12 00:14:25;;;;;;;0.60;0.60;;;6.80;99.90;;;;;;4937694;28;20040;-86
2022/11/12 00:16:51;;;;;;;0.57;0.57;;;6.80;99.90;;;;;;4952412;28;20418;-85
2022/11/12 00:19:17;;;;;;;0.60;0.60;;;7.00;99.90;;;;;;4966956;28;20044;-86
2022/11/12 00:21:43;;;;;;;0.60;0.60;;;6.90;99.90;;;;;;4940317;28;20048;-86
2022/11/12 00:24:08;;;;;;;0.60;0.60;;;7.00;99.90;;;;;;4946268;28;20048;-86
2022/11/12 00:26:34;;;;;;;0.60;0.60;;;6.90;99.90;;;;;;4959102;28;20044;-84
2022/11/12 00:29:00;;;;;;;0.60;0.60;;;6.70;99.90;;;;;;4962477;28;20840;-84
2022/11/12 00:31:26;;;;;;;0.60;0.60;;;6.60;99.90;;;;;;4944111;28;20452;-84
2022/11/12 00:33:52;;;;;;;0.60;0.60;;;6.60;99.90;;;;;;4953938;28;20528;-85
2022/11/12 00:36:17;;;;;;;0.60;0.60;;;6.50;99.90;;;;;;4958223;28;20063;-85
2022/11/12 00:38:43;;;;;;;0.60;0.60;;;6.60;99.90;;;;;;4959082;28;20115;-85
2022/11/12 00:41:09;;;;;;;0.60;0.60;;;6.80;99.90;;;;;;4932490;28;20525;-85
2022/11/12 00:43:35;;;;;;;0.60;0.60;;;6.70;99.90;;;;;;4922558;28;20065;-85
2022/11/12 00:46:00;;;;;;;0.60;0.60;;;6.70;99.90;;;;;;4949375;28;20251;-84
2022/11/12 00:48:26;;;;;;;0.60;0.60;;;6.90;99.90;;;;;;4944314;28;20548;-85
2022/11/12 00:50:59;;;;;;;0.60;0.60;;;7.00;99.90;;;;;;4938024;28;20044;-85
2022/11/12 00:53:25;;;;;;;0.60;0.60;;;7.00;99.90;;;;;;4933152;28;20223;-85
2022/11/12 00:55:51;;;;;;;0.60;0.60;;;7.00;99.90;;;;;;4919283;28;20103;-85
2022/11/12 00:58:19;;;;;;;0.60;0.60;;;6.90;99.90;;;;;;4958549;28;20052;-85
2022/11/12 01:00:45;;;;;;;0.60;0.60;;;7.10;99.90;;;;;;4938993;28;20072;-85
2022/11/12 01:03:10;;;;;;;0.60;0.60;;;7.00;99.90;;;;;;4960820;28;20114;-85
2022/11/12 01:05:36;;;;;;;0.60;0.60;;;6.90;99.90;;;;;;4922787;28;20599;-84
2022/11/12 01:08:02;;;;;;;0.60;0.60;;;7.00;99.90;;;;;;4950096;28;20094;-85
2022/11/12 01:10:28;;;;;;;0.60;0.60;;;7.00;99.90;;;;;;4954898;28;20132;-85
2022/11/12 01:12:54;;;;;;;0.70;0.70;;;6.90;99.90;;;;;;4939205;28;20295;-85
2022/11/12 01:15:20;;;;;;;0.68;0.68;;;6.90;99.90;;;;;;4936661;28;20045;-85
2022/11/12 01:17:46;;;;;;;0.57;0.57;;;7.00;99.90;;;;;;4937736;28;20060;-84
2022/11/12 01:20:11;;;;;;;0.60;0.60;;;7.00;99.90;;;;;;4936742;28;20044;-85
2022/11/12 01:22:37;;;;;;;0.60;0.60;;;7.00;99.90;;;;;;4952171;28;20040;-85
2022/11/12 01:25:03;;;;;;;0.60;0.60;;;7.00;99.90;;;;;;4957338;28;20049;-85
2022/11/12 01:27:29;;;;;;;0.60;0.60;;;7.00;99.90;;;;;;4925961;28;20740;-86
2022/11/12 01:29:55;;;;;;;0.60;0.60;;;7.00;99.90;;;;;;4937522;28;20213;-85
2022/11/12 01:32:20;;;;;;;0.60;0.60;;;7.10;99.90;;;;;;4934844;28;20246;-86
2022/11/12 01:34:46;;;;;;;0.60;0.60;;;7.00;99.90;;;;;;4917665;28;20160;-85
2022/11/12 01:37:12;;;;;;;0.60;0.60;;;7.20;99.90;;;;;;4948488;28;20103;-84
2022/11/12 01:39:37;;;;;;;0.60;0.60;;;7.10;99.90;;;;;;4949939;28;20402;-86
2022/11/12 01:42:03;;;;;;;0.60;0.60;;;6.90;99.90;;;;;;4940112;28;20052;-86
2022/11/12 01:44:30;;;;;;;0.60;0.60;;;6.90;99.90;;;;;;4947467;28;20079;-86
2022/11/12 01:47:19;;;;;;;0.60;0.60;;;7.00;99.90;;;;;;4963238;28;20575;-86
2022/11/12 01:50:12;;;;;;;0.60;0.60;;;6.90;99.90;;;;;;4945773;28;20123;-85
2022/11/12 01:53:01;;;;;;;0.60;0.60;;;7.00;99.90;;;;;;4960588;28;20045;-85
2022/11/12 01:55:29;;;;;;;0.70;0.70;;;6.70;99.90;;;;;;4960521;28;20052;-85
2022/11/12 01:58:13;;;;;;;0.60;0.60;;;6.90;99.90;;;;;;4936426;28;20486;-87
2022/11/12 02:00:40;;;;;;;0.60;0.60;;;6.60;99.90;;;;;;4959669;28;20716;-86
2022/11/12 02:03:11;;;;;;;0.60;0.60;;;6.80;99.90;;;;;;4966198;28;20065;-86
2022/11/12 02:05:38;;;;;;;0.60;0.60;;;6.70;99.90;;;;;;4967885;28;20461;-84
2022/11/12 02:08:06;;;;;;;0.60;0.60;;;6.70;99.90;;;;;;4945158;28;20064;-84
2022/11/12 02:10:33;;;;;;;0.60;0.60;;;6.60;99.90;;;;;;4966491;28;20049;-84
2022/11/12 02:15:44;;;;;;;0.60;0.60;;;6.20;99.90;;;;;;4976926;28;20064;-85
2022/11/12 02:18:10;;;;;;;0.70;0.70;;;6.20;99.90;;;;;;4964460;28;20293;-85
2022/11/12 02:20:37;;;;;;;0.70;0.70;;;6.30;99.90;;;;;;4960758;28;20047;-85
2022/11/12 02:23:05;;;;;;;0.70;0.70;;;6.40;99.90;;;;;;4964159;28;20095;-85
2022/11/12 02:25:33;;;;;;;0.60;0.60;;;6.50;99.90;;;;;;4961432;28;20040;-85
2022/11/12 02:28:01;;;;;;;0.70;0.70;;;6.50;99.90;;;;;;4937993;28;20048;-85
2022/11/12 02:30:38;;;;;;;0.70;0.70;;;6.50;99.90;;;;;;4959061;28;20102;-86
2022/11/12 02:33:04;;;;;;;0.60;0.60;;;6.50;99.90;;;;;;4952626;28;20151;-85
2022/11/12 02:35:30;;;;;;;0.60;0.60;;;6.60;99.90;;;;;;4956643;28;20050;-86
2022/11/12 02:37:56;;;;;;;0.60;0.60;;;6.70;99.90;;;;;;4964536;28;20114;-85
2022/11/12 02:40:23;;;;;;;0.70;0.70;;;6.70;99.90;;;;;;4954012;28;20045;-85
2022/11/12 02:42:49;;;;;;;0.60;0.60;;;6.70;99.90;;;;;;4961070;28;20057;-86
2022/11/12 02:45:15;;;;;;;0.60;0.60;;;6.60;99.90;;;;;;4960232;28;20465;-85
2022/11/12 02:47:41;;;;;;;0.70;0.70;;;6.50;99.90;;;;;;4963691;28;20124;-85
2022/11/12 02:50:08;;;;;;;0.60;0.60;;;6.60;99.90;;;;;;4939984;28;20070;-85
2022/11/12 02:52:34;;;;;;;0.60;0.60;;;6.50;99.90;;;;;;4942290;28;20417;-84
2022/11/12 02:55:00;;;;;;;0.60;0.60;;;6.50;99.90;;;;;;4960620;28;20767;-85
2022/11/12 02:57:26;;;;;;;0.70;0.70;;;6.60;99.90;;;;;;4961275;28;20805;-85
2022/11/12 02:59:52;;;;;;;0.60;0.60;;;6.40;99.90;;;;;;4953859;28;20045;-86
2022/11/12 03:02:18;;;;;;;0.60;0.60;;;6.50;99.90;;;;;;4961578;28;20059;-85
2022/11/12 03:04:43;;;;;;;0.70;0.70;;;6.20;99.90;;;;;;4957803;28;20595;-86
2022/11/12 03:07:09;;;;;;;0.60;0.60;;;6.40;99.90;;;;;;4942760;28;20303;-85
2022/11/12 03:09:35;;;;;;;0.70;0.70;;;6.30;99.90;;;;;;4968209;28;20071;-85
2022/11/12 03:12:00;;;;;;;0.63;0.63;;;6.20;99.90;;;;;;4962191;28;20036;-85
2022/11/12 03:14:26;;;;;;;0.60;0.60;;;6.20;99.90;;;;;;4960388;28;20041;-86
2022/11/12 03:16:52;;;;;;;0.60;0.60;;;6.10;99.90;;;;;;4963865;28;20048;-85
2022/11/12 03:19:18;;;;;;;0.60;0.60;;;6.10;99.90;;;;;;4963716;28;20049;-85
2022/11/12 03:21:43;;;;;;;0.60;0.60;;;6.20;99.90;;;;;;4971268;28;20282;-85
2022/11/12 03:24:15;;;;;;;0.63;0.63;;;6.00;99.90;;;;;;4946389;28;20079;-85
2022/11/12 03:26:41;;;;;;;0.60;0.60;;;6.30;99.90;;;;;;4960003;28;20052;-85
2022/11/12 03:29:07;;;;;;;0.60;0.60;;;6.20;99.90;;;;;;4950682;28;20133;-84
2022/11/12 03:31:34;;;;;;;0.60;0.60;;;6.30;99.90;;;;;;4951324;28;20840;-84
2022/11/12 03:34:03;;;;;;;0.68;0.68;;;6.30;99.90;;;;;;4957046;28;20125;-84
2022/11/12 03:36:29;;;;;;;0.60;0.60;;;6.20;99.90;;;;;;4955101;28;20203;-85
2022/11/12 03:38:55;;;;;;;0.60;0.60;;;5.80;99.90;;;;;;4956097;28;20545;-84
2022/11/12 03:41:21;;;;;;;0.60;0.60;;;5.90;99.90;;;;;;4954724;28;20154;-84
2022/11/12 03:43:47;;;;;;;0.60;0.60;;;6.00;99.90;;;;;;4954584;28;20049;-84
2022/11/12 03:46:13;;;;;;;0.70;0.70;;;5.80;99.90;;;;;;4957387;28;20539;-83
2022/11/12 03:48:38;;;;;;;0.70;0.70;;;5.50;99.90;;;;;;4958650;28;20296;-84
2022/11/12 03:51:04;;;;;;;0.70;0.70;;;5.50;99.90;;;;;;4951784;28;20419;-84
2022/11/12 03:53:30;;;;;;;0.60;0.60;;;5.20;99.90;;;;;;4942155;28;20139;-85
2022/11/12 03:55:56;;;;;;;0.70;0.70;;;5.10;99.90;;;;;;4960063;28;20075;-84
2022/11/12 03:58:22;;;;;;;0.60;0.60;;;5.50;99.90;;;;;;4961929;28;20045;-84
2022/11/12 04:00:48;;;;;;;0.63;0.63;;;5.00;99.90;;;;;;4964859;28;20047;-85
2022/11/12 04:03:13;;;;;;;0.70;0.70;;;5.60;99.90;;;;;;4961422;28;20585;-85
2022/11/12 04:08:42;;;;;;;0.70;0.70;;;5.70;99.90;;;;;;4959942;28;20789;-85
2022/11/12 04:11:13;;;;;;;0.65;0.65;;;5.20;99.90;;;;;;4958357;28;20052;-85
2022/11/12 04:13:40;;;;;;;0.70;0.70;;;4.90;99.90;;;;;;4952042;28;20405;-85
2022/11/12 04:21:57;;;;;;;0.70;0.70;;;5.40;99.90;;;;;;4959750;28;20129;-85
2022/11/12 04:27:17;;;;;;;0.70;0.70;;;5.20;99.90;;;;;;4959060;28;20052;-85
2022/11/12 04:32:29;;;;;;;0.70;0.70;;;5.20;99.90;;;;;;4955199;28;20591;-84
2022/11/12 04:34:55;;;;;;;0.70;0.70;;;4.80;99.90;;;;;;4939679;28;20678;-85
2022/11/12 04:37:23;;;;;;;0.70;0.70;;;4.70;99.90;;;;;;4979506;28;20048;-85
2022/11/12 04:39:50;;;;;;;0.70;0.70;;;4.50;99.90;;;;;;4959969;28;20093;-85
2022/11/12 04:45:03;;;;;;;0.70;0.70;;;4.70;99.90;;;;;;4976300;28;20052;-85
2022/11/12 04:47:38;;;;;;;0.70;0.70;;;4.70;99.90;;;;;;4956239;28;21017;-85
2022/11/12 04:50:16;;;;;;;0.70;0.70;;;4.70;99.90;;;;;;4943097;28;20257;-84
2022/11/12 04:52:42;;;;;;;0.63;0.63;;;4.50;99.90;;;;;;4956087;28;20167;-84
2022/11/12 04:55:09;;;;;;;0.70;0.70;;;4.50;99.90;;;;;;4941392;28;20088;-83
2022/11/12 04:57:36;;;;;;;0.63;0.63;;;4.50;99.90;;;;;;4952089;28;20058;-82
2022/11/12 05:00:03;;;;;;;0.70;0.70;;;4.80;99.90;;;;;;4959835;28;20059;-85
2022/11/12 05:02:29;;;;;;;0.65;0.65;;;4.70;99.90;;;;;;4956384;28;20176;-84
2022/11/12 05:04:55;;;;;;;0.70;0.70;;;4.60;99.90;;;;;;4942215;28;20057;-84
2022/11/12 05:07:21;;;;;;;0.60;0.60;;;4.60;99.90;;;;;;4953623;28;20883;-84
2022/11/12 05:09:47;;;;;;;0.70;0.70;;;4.40;99.90;;;;;;4954379;28;20460;-84
2022/11/12 05:12:12;;;;;;;0.70;0.70;;;4.30;99.90;;;;;;4958325;28;20036;-84
2022/11/12 05:14:38;;;;;;;0.63;0.63;;;4.30;99.90;;;;;;4956310;28;20128;-85
2022/11/12 05:17:05;;;;;;;0.60;0.60;;;4.40;99.90;;;;;;4956230;28;20110;-85
2022/11/12 05:19:30;;;;;;;0.68;0.68;;;4.40;99.90;;;;;;4962148;28;20040;-85
2022/11/12 05:22:05;;;;;;;0.60;0.60;;;4.20;99.90;;;;;;4953923;28;20051;-84
2022/11/12 05:24:33;;;;;;;0.68;0.68;;;4.40;99.90;;;;;;4966482;28;20044;-84
2022/11/12 05:26:59;;;;;;;0.60;0.60;;;4.30;99.90;;;;;;4952198;28;20056;-84
2022/11/12 05:29:24;;;;;;;0.65;0.65;;;4.30;99.90;;;;;;4952817;28;20047;-83
2022/11/12 05:31:52;;;;;;;0.68;0.68;;;4.50;99.90;;;;;;4939921;28;20040;-83
2022/11/12 05:34:18;;;;;;;0.70;0.70;;;4.40;99.90;;;;;;4955833;28;20456;-84
2022/11/12 05:36:44;;;;;;;0.70;0.70;;;4.50;99.90;;;;;;4959042;28;20110;-84
2022/11/12 05:39:12;;;;;;;0.70;0.70;;;4.40;99.90;;;;;;4938810;28;20067;-84
2022/11/12 05:41:38;;;;;;;0.70;0.70;;;4.60;99.90;;;;;;4941613;28;20078;-84
2022/11/12 05:44:04;;;;;;;0.68;0.68;;;4.20;99.90;;;;;;4959926;28;20898;-84
2022/11/12 05:46:30;;;;;;;0.60;0.60;;;4.00;99.90;;;;;;4937984;28;20055;-84
2022/11/12 05:48:55;;;;;;;0.80;0.80;;;3.80;99.90;;;;;;4944627;28;20256;-85
2022/11/12 05:51:21;;;;;;;0.70;0.70;;;3.90;99.90;;;;;;4955269;28;20502;-84
2022/11/12 05:53:47;;;;;;;0.60;0.60;;;3.80;99.90;;;;;;4952680;28;20045;-84
2022/11/12 05:56:13;;;;;;;0.60;0.60;;;3.90;99.90;;;;;;4955817;28;20047;-84
2022/11/12 05:58:39;;;;;;;0.70;0.70;;;3.90;99.90;;;;;;4952976;28;20114;-84
2022/11/12 06:01:05;;;;;;;0.70;0.70;;;3.80;99.90;;;;;;4953904;28;21018;-85
2022/11/12 06:03:31;;;;;;;0.60;0.60;;;4.00;99.90;;;;;;4958878;28;20576;-85
2022/11/12 06:05:57;;;;;;;0.60;0.60;;;3.90;99.90;;;;;;4953369;28;20048;-84
2022/11/12 06:08:23;;;;;;;0.60;0.60;;;4.00;99.90;;;;;;4951988;28;21030;-85
2022/11/12 06:10:53;;;;;;;0.60;0.60;;;3.70;99.90;;;;;;4955072;28;20047;-84
2022/11/12 06:13:23;;;;;;;0.60;0.60;;;3.60;99.90;;;;;;4959012;28;20041;-85
2022/11/12 06:15:48;;;;;;;0.70;0.70;;;3.50;99.90;;;;;;4956394;28;20080;-85
2022/11/12 06:18:14;;;;;;;0.60;0.60;;;3.60;99.90;;;;;;4953035;28;20051;-84
2022/11/12 06:20:40;;;;;;;0.68;0.68;;;3.60;99.90;;;;;;4936753;28;20055;-85
2022/11/12 06:23:06;;;;;;;0.63;0.63;;;3.70;99.90;;;;;;4936266;28;20293;-85
2022/11/12 06:25:32;;;;;;;0.70;0.70;;;3.80;99.90;;;;;;4970769;28;20558;-85
2022/11/12 06:27:58;;;;;;;0.80;0.80;;;3.90;99.90;;;;;;4955475;28;20921;-85
2022/11/12 06:30:24;;;;;;;0.60;0.60;;;3.70;99.90;;;;;;4945327;28;20044;-85
2022/11/12 06:32:50;;;;;;;0.60;0.60;;;3.70;99.90;;;;;;4934288;28;20286;-85
2022/11/12 06:35:17;;;;;;;0.60;0.60;;;3.50;99.90;;;;;;4959532;28;20060;-86
2022/11/12 06:37:47;;;;;;;0.60;0.60;;;3.80;99.90;;;;;;4979700;28;20049;-86
2022/11/12 06:40:15;;;;;;;0.60;0.60;;;3.80;99.90;;;;;;4956583;28;20074;-81
2022/11/12 06:42:41;;;;;;;0.70;0.70;;;3.60;99.90;;;;;;4959195;28;20510;-81
2022/11/12 06:45:07;;;;;;;0.70;0.70;;;3.70;99.90;;;;;;4958263;28;20063;-82
2022/11/12 06:47:33;;;;;;;0.70;0.70;;;3.50;99.90;;;;;;4953355;28;20052;-85
2022/11/12 06:49:59;;;;;;;0.70;0.70;;;3.70;99.90;;;;;;4959640;28;20040;-86
2022/11/12 06:52:25;;;;;;;0.60;0.60;;;3.70;99.90;;;;;;4956749;28;20132;-85
2022/11/12 06:54:54;;;;;;;0.60;0.60;;;3.50;99.90;;;;;;4958462;28;21111;-84
2022/11/12 06:57:19;;;;;;;0.63;0.63;;;3.50;99.90;;;;;;4961269;28;20071;-85
2022/11/12 06:59:45;;;;;;;0.70;0.70;;;3.60;99.90;;;;;;4940715;28;20054;-86
2022/11/12 07:02:12;;;;;;;0.60;0.60;;;3.60;99.90;;;;;;4959228;28;20040;-84
2022/11/12 07:04:38;;;;;;;0.60;0.60;;;3.90;99.90;;;;;;4956793;28;20598;-85
2022/11/12 07:07:04;;;;;;;0.60;0.60;;;3.90;99.90;;;;;;4946767;28;20486;-85
2022/11/12 07:09:29;;;;;;;0.70;0.70;;;3.80;99.90;;;;;;4965069;28;20824;-85
2022/11/12 07:11:55;;;;;;;0.70;0.70;;;3.70;99.90;;;;;;4944101;28;20127;-83
2022/11/12 07:14:21;;;;;;;0.70;0.70;;;3.60;99.90;;;;;;4951256;28;20505;-84
2022/11/12 07:16:46;;;;;;;0.65;0.65;;;4.10;99.90;;;;;;4960912;28;20044;-84
2022/11/12 07:19:12;;;;;;;0.60;0.60;;;3.70;99.90;;;;;;4944396;28;20040;-84
2022/11/12 07:21:38;;;;;;;0.65;0.65;;;3.70;99.90;;;;;;4957590;28;20048;-85
2022/11/12 07:24:04;;;;;;;0.70;0.70;;;3.80;99.90;;;;;;4950241;28;20056;-84
2022/11/12 07:26:30;;;;;;;0.70;0.70;;;3.90;99.90;;;;;;4958095;28;20211;-84
2022/11/12 07:28:55;;;;;;;0.70;0.70;;;4.10;99.90;;;;;;4959917;28;20080;-85
2022/11/12 07:31:24;;;;;;;0.70;0.70;;;4.00;99.90;;;;;;4941898;28;20539;-84
2022/11/12 07:33:50;;;;;;;0.70;0.70;;;4.20;99.90;;;;;;4961412;28;20502;-86
2022/11/12 07:36:19;;;;;;;0.70;0.70;;;4.30;99.90;;;;;;4955454;28;20071;-85
2022/11/12 07:38:45;;;;;;;0.65;0.65;;;4.40;99.90;;;;;;4945906;28;20059;-85
2022/11/12 07:41:16;;;;;;;0.70;0.70;;;4.20;99.90;;;;;;4939838;28;20237;-85
2022/11/12 07:43:45;;;;;;;0.65;0.65;;;4.70;99.90;;;;;;4963963;28;20091;-83
2022/11/12 07:46:19;;;;;;;0.60;0.60;;;4.90;99.90;;;;;;4961133;28;20461;-84
2022/11/12 07:48:46;;;;;;;0.60;0.60;;;5.30;99.90;;;;;;4935667;28;21080;-85
2022/11/12 07:51:18;;;;;;;0.70;0.70;;;5.10;99.90;;;;;;4949465;28;20201;-92
2022/11/12 07:53:45;;;;;;;0.63;0.63;;;5.40;99.90;;;;;;4954555;28;20735;-83
2022/11/12 07:56:13;;;;;;;0.60;0.60;;;5.60;99.90;;;;;;4956639;28;20049;-83
2022/11/12 07:58:39;;;;;;;0.65;0.65;;;5.50;99.90;;;;;;4954806;28;20660;-84
2022/11/12 08:01:22;;;;;;;0.70;0.70;;;5.60;99.90;;;;;;4957784;28;20051;-83
2022/11/12 08:03:47;;;;;;;0.60;0.60;;;6.00;99.90;;;;;;4956457;28;20113;-85
2022/11/12 08:06:13;;;;;;;0.60;0.60;;;6.00;99.90;;;;;;4960860;28;20155;-84
2022/11/12 08:08:39;;;;;;;0.70;0.70;;;6.10;99.90;;;;;;4933426;28;20481;-84
2022/11/12 08:11:05;;;;;;;0.60;0.60;;;6.20;99.90;;;;;;4965862;28;20591;-84
2022/11/12 08:13:31;;;;;;;0.60;0.60;;;6.00;99.90;;;;;;4951730;28;20088;-84
2022/11/12 08:15:58;;;;;;;0.70;0.70;;;6.10;99.90;;;;;;4974588;28;20441;-83
2022/11/12 08:18:24;;;;;;;0.60;0.60;;;6.30;99.90;;;;;;4962320;28;20295;-84
2022/11/12 08:20:50;;;;;;;0.60;0.60;;;6.60;99.90;;;;;;4940193;28;20056;-84
2022/11/12 08:23:15;;;;;;;0.60;0.60;;;6.70;99.90;;;;;;4950534;28;20536;-84
2022/11/12 08:25:41;;;;;;;0.60;0.60;;;6.80;99.90;;;;;;4948245;28;20385;-85
2022/11/12 08:28:07;;;;;;;0.68;0.68;;;7.10;99.90;;;;;;4953102;28;20601;-85
2022/11/12 08:30:34;;;;;;;0.68;0.68;;;6.90;99.90;;;;;;4933197;28;20426;-85
2022/11/12 08:33:03;;;;;;;0.60;0.60;;;7.00;99.90;;;;;;4955855;28;20155;-86
2022/11/12 08:35:30;;;;;;;0.60;0.60;;;7.20;99.90;;;;;;4951524;28;20045;-84
2022/11/12 08:38:06;;;;;;;0.60;0.60;;;7.40;99.90;;;;;;4937876;28;20056;-84
2022/11/12 08:40:32;;;;;;;0.65;0.65;;;7.60;99.90;;;;;;4949918;28;20868;-85
2022/11/12 08:43:08;;;;;;;0.70;0.70;;;7.60;99.90;;;;;;4937820;28;20122;-85
2022/11/12 08:45:36;;;;;;;0.60;0.60;;;7.70;99.90;;;;;;4953439;28;20037;-87
2022/11/12 08:48:08;;;;;;;0.60;0.60;;;7.40;99.90;;;;;;4952401;28;20604;-85
2022/11/12 08:50:34;;;;;;;0.60;0.60;;;7.70;99.90;;;;;;4950633;28;20048;-85
2022/11/12 08:53:02;;;;;;;0.60;0.60;;;7.80;99.90;;;;;;4937305;28;20840;-85
2022/11/12 08:55:29;;;;;;;0.60;0.60;;;7.90;99.90;;;;;;4971904;28;20984;-84
2022/11/12 08:58:00;;;;;;;0.60;0.60;;;8.10;99.90;;;;;;4957083;28;20755;-86
2022/11/12 09:00:31;;;;;;;0.70;0.70;;;7.90;99.90;;;;;;4952217;28;20051;-87
2022/11/12 09:03:06;;;;;;;0.60;0.60;;;8.10;99.90;;;;;;4941472;28;20110;-85
2022/11/12 09:05:34;;;;;;;0.60;0.60;;;8.20;99.90;;;;;;4949653;28;20688;-82
2022/11/12 09:08:08;;;;;;;0.70;0.70;;;8.20;99.90;;;;;;4971852;28;20044;-84
2022/11/12 09:10:34;;;;;;;0.60;0.60;;;8.40;99.90;;;;;;4961614;28;20792;-89
2022/11/12 09:13:01;;;;;;;0.57;0.57;;;8.70;99.90;;;;;;4926388;28;20079;-87
2022/11/12 09:15:28;;;;;;;0.60;0.60;;;8.60;99.90;;;;;;4945630;28;20110;-86
2022/11/12 09:17:58;;;;;;;0.60;0.60;;;8.50;99.90;;;;;;4963871;28;20056;-85
2022/11/12 09:20:27;;;;;;;0.50;0.50;;;8.40;99.90;;;;;;4962626;28;21035;-87
2022/11/12 09:22:53;;;;;;;0.60;0.60;;;8.60;99.90;;;;;;4960650;28;20658;-85
2022/11/12 09:25:19;;;;;;;0.60;0.60;;;8.70;99.90;;;;;;4987857;28;20056;-87
2022/11/12 09:27:45;;;;;;;0.60;0.60;;;8.90;99.90;;;;;;4965452;28;20057;-86
2022/11/12 09:30:11;;;;;;;0.60;0.60;;;8.50;99.90;;;;;;4958904;28;20048;-85
2022/11/12 09:32:37;;;;;;;0.57;0.57;;;8.80;99.90;;;;;;4971771;28;20615;-84
2022/11/12 09:35:03;;;;;;;0.60;0.60;;;8.90;99.90;;;;;;4980876;28;20124;-84
2022/11/12 09:37:29;;;;;;;0.55;0.55;;;8.90;99.90;;;;;;4978654;28;20153;-88
2022/11/12 09:39:55;;;;;;;0.60;0.60;;;9.20;99.90;;;;;;4976852;28;20808;-84
2022/11/12 09:42:21;;;;;;;0.52;0.52;;;9.30;99.90;;;;;;4937898;28;20052;-86
2022/11/12 09:45:00;;;;;;;0.52;0.52;;;9.50;99.90;;;;;;4956842;28;20585;-85
2022/11/12 09:47:39;;;;;;;0.50;0.50;;;9.60;99.90;;;;;;4965480;28;21273;-87
2022/11/12 09:50:29;;;;;;;0.60;0.60;;;9.70;99.90;;;;;;4953043;28;20266;-84
2022/11/12 09:53:28;;;;;;;0.50;0.50;;;9.70;99.90;;;;;;4947628;28;20071;-84
2022/11/12 09:55:54;;;;;;;0.50;0.50;;;9.70;99.90;;;;;;4953107;28;20510;-85
2022/11/12 09:58:19;;;;;;;0.60;0.60;;;9.70;99.90;;;;;;4959578;28;20048;-85
2022/11/12 10:01:02;;;;;;;0.60;0.60;;;9.80;99.90;;;;;;4936030;28;20052;-85
2022/11/12 10:03:43;;;;;;;0.50;0.50;;;9.80;99.90;;;;;;4956876;28;20049;-85
2022/11/12 10:06:19;;;;;;;0.55;0.55;;;9.90;99.90;;;;;;4957237;28;20232;-82
2022/11/12 10:09:09;;;;;;;0.50;0.50;;;9.90;99.90;;;;;;4950148;28;20045;-81
2022/11/12 10:14:50;;;;;;;0.60;0.60;;;10.10;99.90;;;;;;4955549;28;20052;-84
2022/11/12 10:17:28;;;;;;;0.60;0.60;;;10.20;99.90;;;;;;4970663;28;20931;-86
2022/11/12 10:20:18;;;;;;;0.50;0.50;;;10.30;99.90;;;;;;4939548;28;22902;-86
2022/11/12 10:23:16;;;;;;;0.60;0.60;;;10.00;99.90;;;;;;4959483;28;20048;-86
2022/11/12 10:25:45;;;;;;;0.50;0.50;;;10.30;99.90;;;;;;4958897;28;20052;-86
2022/11/12 10:28:25;;;;;;;0.50;0.50;;;10.50;99.90;;;;;;4956369;28;20147;-84
2022/11/12 10:30:55;;;;;;;0.50;0.50;;;10.70;99.90;;;;;;4959311;28;20040;-85
2022/11/12 10:33:23;;;;;;;0.60;0.60;;;10.50;99.90;;;;;;4965268;28;20041;-88
2022/11/12 10:35:51;;;;;;;0.50;0.50;;;10.70;99.90;;;;;;4960953;28;20548;-83
2022/11/12 10:38:25;;;;;;;0.50;0.50;;;10.90;99.90;;;;;;4962293;28;20158;-82
2022/11/12 10:40:51;;;;;;;;;;;10.90;99.90;;;;;;4947795;28;20994;-84
2022/11/12 10:43:16;;;;;;;0.60;0.60;;;11.10;99.90;;;;;;4962806;28;19924;-83
2022/11/12 10:45:44;;;;;;;0.50;0.50;;;11.30;99.90;;;;;;4979930;28;20097;-84
2022/11/12 10:48:32;;;;;;;0.50;0.50;;;11.20;99.90;;;;;;4952323;28;20044;-84
2022/11/12 10:50:58;;;;;;;0.52;0.52;;;11.40;99.90;;;;;;4965306;28;20544;-86
2022/11/12 10:53:36;;;;;;;0.50;0.50;;;11.10;99.90;;;;;;4946200;28;20132;-86
2022/11/12 10:56:04;;;;;;;0.50;0.50;;;11.40;99.90;;;;;;4955584;28;20056;-83
2022/11/12 10:58:30;;;;;;;0.50;0.50;;;11.70;99.90;;;;;;4958550;28;20076;-85
2022/11/12 11:01:03;;;;;;;0.50;0.50;;;11.90;99.90;;;;;;4980177;28;20059;-85
2022/11/12 11:03:35;;;;;;;0.50;0.50;;;12.00;99.90;;;;;;4960259;28;20045;-87
2022/11/12 11:06:13;;;;;;;0.50;0.50;;;12.00;99.90;;;;;;4967142;28;20082;-89
2022/11/12 11:08:47;;;;;;;0.50;0.50;;;12.00;99.90;;;;;;4952947;28;20955;-88
2022/11/12 11:11:21;;;;;;;0.50;0.50;;;12.10;99.90;;;;;;4966970;28;20083;-88
2022/11/12 11:13:49;;;;;;;0.50;0.50;;;12.40;99.90;;;;;;4972794;28;20445;-88
2022/11/12 11:16:46;;;;;;;0.50;0.50;;;12.20;99.90;;;;;;4970392;28;20587;-92
2022/11/12 11:19:15;;;;;;;0.50;0.50;;;12.20;99.90;;;;;;4990275;28;20049;-91
2022/11/12 11:21:49;;;;;;;0.50;0.50;;;12.50;99.90;;;;;;4979976;28;20377;-93
2022/11/12 11:24:32;;;;;;;0.50;0.50;;;12.70;99.90;;;;;;4977624;28;20051;-92
2022/11/12 11:27:46;;;;;;;0.50;0.50;;;12.80;99.90;;;;;;4984435;28;20080;-93
2022/11/12 11:30:18;;;;;;;0.50;0.50;;;13.10;99.90;;;;;;4941488;28;20084;-91
2022/11/12 11:33:03;;;;;;;0.50;0.50;;;13.30;99.90;;;;;;4957769;28;20059;-87
2022/11/12 11:35:40;;;;;;;0.50;0.50;;;13.20;99.90;;;;;;4978703;28;20043;-94
2022/11/12 11:38:30;;;;;;;0.50;0.50;;;13.40;99.90;;;;;;4969836;28;20531;-93
2022/11/12 11:41:29;;;;;;;0.50;0.50;;;13.30;99.90;;;;;;4976017;28;20040;-93
2022/11/12 11:44:26;;;;;;;0.55;0.55;;;13.40;99.90;;;;;;4978160;28;20622;-93
2022/11/12 11:46:57;;;;;;;0.50;0.50;;;13.40;99.90;;;;;;4984271;28;20056;-93
2022/11/12 11:50:11;;;;;;;0.50;0.50;;;13.40;99.90;;;;;;4987385;28;20044;-94
2022/11/12 11:53:17;;;;;;;0.50;0.50;;;14.00;99.90;;;;;;4983574;28;20533;-91
2022/11/12 11:56:27;;;;;;;0.50;0.50;;;14.10;99.90;;;;;;4968763;28;20834;-93
2022/11/12 11:59:30;;;;;;;0.40;0.40;;;14.20;99.90;;;;;;4979087;28;20052;-93
2022/11/12 12:02:29;;;;;;;0.50;0.50;;;14.50;99.90;;;;;;4954808;28;20055;-85
2022/11/12 12:04:58;;;;;;;0.40;0.40;;;14.40;99.90;;;;;;4964269;28;20047;-90
2022/11/12 12:07:23;;;;;;;0.40;0.40;;;14.20;99.90;;;;;;4960414;28;20118;-85
2022/11/12 12:10:05;;;;;;;0.50;0.50;;;14.30;99.90;;;;;;4967875;28;20560;-85
2022/11/12 12:12:48;;;;;;;0.43;0.43;;;14.50;99.90;;;;;;4946596;28;20548;-86
2022/11/12 12:15:29;;;;;;;0.40;0.40;;;14.60;99.90;;;;;;4988800;28;20052;-85
2022/11/12 12:18:32;;;;;;;0.40;0.40;;;14.80;99.90;;;;;;4985248;28;20048;-84
2022/11/12 12:21:14;;;;;;;0.40;0.40;;;14.70;99.90;;;;;;4942445;28;20056;-85
2022/11/12 12:23:50;;;;;;;0.40;0.40;;;14.80;99.90;;;;;;4977062;28;20693;-82
2022/11/12 12:26:50;;;;;;;0.43;0.43;;;14.80;99.90;;;;;;4963440;28;20063;-85
2022/11/12 12:30:01;;;;;;;0.40;0.40;;;14.90;99.90;;;;;;4960976;28;20048;-83
2022/11/12 12:32:37;;;;;;;1.13;1.13;;;15.10;99.90;;;;;;4870751;28;20053;-83
2022/11/12 12:35:39;;;;;;;0.40;0.40;;;15.00;99.90;;;;;;4879056;28;20414;-85
2022/11/12 12:38:33;;;;;;;0.40;0.40;;;14.50;99.90;;;;;;4963727;28;20057;-81
2022/11/12 12:41:28;;;;;;;0.50;0.50;;;14.50;99.90;;;;;;4957924;28;20079;-89
2022/11/12 12:44:03;;;;;;;0.50;0.50;;;14.80;99.90;;;;;;4987771;28;20524;-87
2022/11/12 12:46:35;;;;;;;0.50;0.50;;;14.90;99.90;;;;;;4970973;28;20055;-87
2022/11/12 12:49:04;;;;;;;0.40;0.40;;;14.70;99.90;;;;;;4941944;28;20052;-88
2022/11/12 12:51:31;;;;;;;0.40;0.40;;;14.60;99.90;;;;;;4972470;28;20044;-89
2022/11/12 12:53:58;;;;;;;0.40;0.40;;;14.50;99.90;;;;;;4962600;28;20139;-88
2022/11/12 12:56:30;;;;;;;0.40;0.40;;;14.30;99.90;;;;;;4944468;28;20055;-90
2022/11/12 12:58:56;;;;;;;0.50;0.50;;;14.50;99.90;;;;;;4983505;28;20040;-92
2022/11/12 13:01:22;;;;;;;0.50;0.50;;;14.50;99.90;;;;;;4935153;28;20094;-89
2022/11/12 13:04:03;;;;;;;0.40;0.40;;;14.70;99.90;;;;;;4954684;28;20356;-84
2022/11/12 13:06:44;;;;;;;0.40;0.40;;;14.80;99.90;;;;;;4963224;28;20040;-89
2022/11/12 13:09:19;;;;;;;0.50;0.50;;;14.90;99.90;;;;;;4983417;28;20394;-89
2022/11/12 13:14:38;;;;;;;0.40;0.40;;;15.20;99.90;;;;;;4975311;28;20478;-85
2022/11/12 13:17:10;;;;;;;0.60;0.60;;;15.20;99.90;;;;;;4969084;28;20078;-91
2022/11/12 13:19:55;;;;;;;0.40;0.40;;;15.10;99.90;;;;;;4981802;28;20560;-88
2022/11/12 13:22:22;;;;;;;0.50;0.50;;;15.50;99.90;;;;;;4980747;28;20044;-90
2022/11/12 13:25:07;;;;;;;0.40;0.40;;;15.40;99.90;;;;;;4981214;28;20063;-93
2022/11/12 13:27:44;;;;;;;;;;;15.10;99.90;;;;;;4959203;28;20127;-91
2022/11/12 13:30:13;;;;;;;0.50;0.50;;;14.90;99.90;;;;;;4968244;28;19924;-90
2022/11/12 13:32:46;;;;;;;0.47;0.47;;;14.80;99.90;;;;;;4964033;28;20135;-88
2022/11/12 13:35:20;;;;;;;0.40;0.40;;;15.10;99.90;;;;;;4982492;28;20093;-88
2022/11/12 13:38:07;;;;;;;0.40;0.40;;;15.50;99.90;;;;;;4989965;28;20049;-94
2022/11/12 13:41:12;;;;;;;0.40;0.40;;;15.50;99.90;;;;;;4978002;28;20045;-93